createdAt,value
2023-05-05T00:00:33.241Z,29.48
2023-05-05T00:01:33.347Z,29.51
2023-05-05T00:02:33.365Z,29.53
2023-05-05T00:03:33.399Z,29.54
2023-05-05T00:04:33.369Z,29.53
2023-05-05T00:05:33.418Z,29.52
2023-05-05T00:06:33.440Z,29.51
2023-05-05T00:07:33.459Z,29.51
2023-05-05T00:08:33.501Z,29.51
2023-05-05T00:09:33.566Z,29.51
2023-05-05T00:10:33.587Z,29.53
2023-05-05T00:11:33.646Z,29.54
2023-05-05T00:12:33.684Z,29.56
2023-05-05T00:13:33.693Z,29.56
2023-05-05T00:14:33.737Z,29.56
2023-05-05T00:15:33.763Z,29.56
2023-05-05T00:16:33.791Z,29.57
2023-05-05T00:17:33.884Z,29.58
2023-05-05T00:18:33.861Z,29.58
2023-05-05T00:19:33.872Z,29.61
2023-05-05T00:20:33.902Z,29.59
2023-05-05T00:21:33.931Z,29.61
2023-05-05T00:22:33.946Z,29.60
2023-05-05T00:23:33.998Z,29.62
2023-05-05T00:24:34.021Z,29.64
2023-05-05T00:25:34.038Z,29.64
2023-05-05T00:26:34.086Z,29.66
2023-05-05T00:27:34.114Z,29.64
2023-05-05T00:28:34.143Z,29.67
2023-05-05T00:29:34.190Z,29.69
2023-05-05T00:30:34.261Z,29.70
2023-05-05T00:31:34.350Z,29.72
2023-05-05T00:32:34.437Z,29.70
2023-05-05T00:33:34.533Z,29.71
2023-05-05T00:34:34.507Z,29.72
2023-05-05T00:35:34.602Z,29.73
2023-05-05T00:36:34.634Z,29.71
2023-05-05T00:37:34.672Z,29.73
2023-05-05T00:38:34.731Z,29.77
2023-05-05T00:39:34.817Z,29.75
2023-05-05T00:40:34.846Z,29.77
2023-05-05T00:41:34.901Z,29.77
2023-05-05T00:42:34.914Z,29.77
2023-05-05T00:43:34.944Z,29.80
2023-05-05T00:44:34.994Z,29.81
2023-05-05T00:45:35.046Z,29.83
2023-05-05T00:46:35.108Z,29.82
2023-05-05T00:47:35.160Z,29.83
2023-05-05T00:48:35.179Z,29.86
2023-05-05T00:49:35.232Z,29.88
2023-05-05T00:50:35.238Z,29.90
2023-05-05T00:51:35.256Z,29.96
2023-05-05T00:52:35.293Z,30.01
2023-05-05T00:53:35.351Z,30.01
2023-05-05T00:54:35.383Z,30.03
2023-05-05T00:55:35.425Z,30.05
2023-05-05T00:56:35.437Z,30.06
2023-05-05T00:57:35.503Z,30.05
2023-05-05T00:58:35.533Z,30.03
2023-05-05T00:59:35.540Z,30.03
2023-05-05T01:00:35.578Z,30.02
2023-05-05T01:01:35.638Z,30.00
2023-05-05T01:02:35.704Z,29.96
2023-05-05T01:03:35.750Z,29.99
2023-05-05T01:04:35.728Z,29.96
2023-05-05T01:05:35.751Z,29.92
2023-05-05T01:06:35.780Z,29.86
2023-05-05T01:07:35.814Z,29.85
2023-05-05T01:08:35.832Z,29.85
2023-05-05T01:09:35.885Z,29.82
2023-05-05T01:10:35.902Z,29.80
2023-05-05T01:11:35.917Z,29.81
2023-05-05T01:12:36.029Z,29.81
2023-05-05T01:13:35.997Z,29.82
2023-05-05T01:14:36.021Z,29.85
2023-05-05T01:15:36.046Z,29.86
2023-05-05T01:16:36.124Z,29.82
2023-05-05T01:17:36.115Z,29.81
2023-05-05T01:18:36.116Z,29.89
2023-05-05T01:19:36.153Z,29.88
2023-05-05T01:20:36.206Z,29.87
2023-05-05T01:21:36.213Z,29.89
2023-05-05T01:22:36.438Z,29.89
2023-05-05T01:23:36.246Z,29.88
2023-05-05T01:24:36.250Z,29.89
2023-05-05T01:25:36.283Z,29.90
2023-05-05T01:26:36.340Z,29.92
2023-05-05T01:27:36.364Z,29.91
2023-05-05T01:28:36.368Z,29.90
2023-05-05T01:29:36.407Z,29.93
2023-05-05T01:30:36.425Z,29.91
2023-05-05T01:31:36.543Z,29.92
2023-05-05T01:32:36.492Z,29.93
2023-05-05T01:33:36.486Z,29.94
2023-05-05T01:34:36.542Z,29.94
2023-05-05T01:35:36.592Z,29.94
2023-05-05T01:36:36.620Z,29.94
2023-05-05T01:37:36.617Z,29.93
2023-05-05T01:38:36.663Z,29.95
2023-05-05T01:39:36.706Z,29.96
2023-05-05T01:40:36.707Z,29.96
2023-05-05T01:41:36.745Z,29.96
2023-05-05T01:42:36.861Z,29.97
2023-05-05T01:43:36.769Z,29.97
2023-05-05T01:44:36.789Z,29.98
2023-05-05T01:45:36.895Z,29.97
2023-05-05T01:46:36.960Z,29.99
2023-05-05T01:47:36.868Z,30.01
2023-05-05T01:48:36.883Z,29.97
2023-05-05T01:49:36.901Z,29.99
2023-05-05T01:50:36.934Z,29.99
2023-05-05T01:51:36.941Z,30.01
2023-05-05T01:52:36.971Z,30.01
2023-05-05T01:53:36.991Z,29.98
2023-05-05T01:54:37.013Z,30.01
2023-05-05T01:55:37.026Z,30.01
2023-05-05T01:56:37.033Z,30.03
2023-05-05T01:57:37.079Z,30.02
2023-05-05T01:58:37.068Z,30.03
2023-05-05T01:59:37.085Z,30.03
2023-05-05T02:00:37.106Z,30.03
2023-05-05T02:01:37.178Z,30.03
2023-05-05T02:02:37.202Z,30.05
2023-05-05T02:03:37.177Z,30.05
2023-05-05T02:04:37.187Z,30.05
2023-05-05T02:05:37.182Z,30.04
2023-05-05T02:06:37.220Z,30.06
2023-05-05T02:07:37.236Z,30.06
2023-05-05T02:08:37.261Z,30.07
2023-05-05T02:09:37.277Z,30.07
2023-05-05T02:10:37.302Z,30.06
2023-05-05T02:11:37.314Z,30.04
2023-05-05T02:12:37.382Z,30.08
2023-05-05T02:13:37.406Z,30.08
2023-05-05T02:14:37.356Z,30.08
2023-05-05T02:15:37.413Z,30.08
2023-05-05T02:16:37.418Z,30.10
2023-05-05T02:17:37.457Z,30.09
2023-05-05T02:18:37.511Z,30.11
2023-05-05T02:19:37.558Z,30.09
2023-05-05T02:20:37.557Z,30.07
2023-05-05T02:21:37.612Z,30.09
2023-05-05T02:22:37.623Z,30.11
2023-05-05T02:23:37.648Z,30.10
2023-05-05T02:24:37.656Z,30.11
2023-05-05T02:25:37.689Z,30.12
2023-05-05T02:26:37.712Z,30.12
2023-05-05T02:27:37.722Z,30.10
2023-05-05T02:28:37.815Z,30.11
2023-05-05T02:29:37.753Z,30.11
2023-05-05T02:30:37.772Z,30.12
2023-05-05T02:31:37.859Z,30.12
2023-05-05T02:32:37.908Z,30.12
2023-05-05T02:33:37.949Z,30.12
2023-05-05T02:34:38.015Z,30.12
2023-05-05T02:35:38.084Z,30.13
2023-05-05T02:36:38.127Z,30.13
2023-05-05T02:37:38.197Z,30.12
2023-05-05T02:38:38.249Z,30.11
2023-05-05T02:39:38.296Z,30.11
2023-05-05T02:40:38.368Z,30.13
2023-05-05T02:41:38.416Z,30.12
2023-05-05T02:42:38.418Z,30.13
2023-05-05T02:43:38.417Z,30.11
2023-05-05T02:44:38.558Z,30.13
2023-05-05T02:45:38.448Z,30.14
2023-05-05T02:46:38.556Z,30.13
2023-05-05T02:47:38.570Z,30.12
2023-05-05T02:48:38.547Z,30.13
2023-05-05T02:49:38.645Z,30.11
2023-05-05T02:50:38.666Z,30.12
2023-05-05T02:51:38.672Z,30.14
2023-05-05T02:52:38.720Z,30.12
2023-05-05T02:53:38.697Z,30.11
2023-05-05T02:54:38.717Z,30.12
2023-05-05T02:55:38.735Z,30.12
2023-05-05T02:56:38.754Z,30.12
2023-05-05T02:57:38.831Z,30.11
2023-05-05T02:58:38.804Z,30.13
2023-05-05T02:59:38.809Z,30.11
2023-05-05T03:00:38.820Z,30.11
2023-05-05T03:01:38.999Z,30.12
2023-05-05T03:02:38.979Z,30.11
2023-05-05T03:03:39.103Z,30.12
2023-05-05T03:04:38.865Z,30.13
2023-05-05T03:05:38.883Z,30.10
2023-05-05T03:06:38.901Z,30.12
2023-05-05T03:07:38.939Z,30.11
2023-05-05T03:08:38.932Z,30.10
2023-05-05T03:09:38.947Z,30.12
2023-05-05T03:10:38.953Z,30.10
2023-05-05T03:11:38.982Z,30.10
2023-05-05T03:12:39.033Z,30.10
2023-05-05T03:13:38.992Z,30.10
2023-05-05T03:14:39.020Z,30.09
2023-05-05T03:15:39.006Z,30.12
2023-05-05T03:16:39.094Z,30.09
2023-05-05T03:17:39.087Z,30.09
2023-05-05T03:18:39.069Z,30.10
2023-05-05T03:19:39.074Z,30.11
2023-05-05T03:20:39.078Z,30.09
2023-05-05T03:21:39.090Z,30.10
2023-05-05T03:22:39.119Z,30.09
2023-05-05T03:23:39.140Z,30.09
2023-05-05T03:24:39.173Z,30.08
2023-05-05T03:25:39.167Z,30.09
2023-05-05T03:26:39.224Z,30.07
2023-05-05T03:27:39.276Z,30.10
2023-05-05T03:28:39.320Z,30.07
2023-05-05T03:29:41.028Z,30.08
2023-05-05T03:30:39.439Z,30.07
2023-05-05T03:31:39.580Z,30.08
2023-05-05T03:32:39.620Z,30.06
2023-05-05T03:33:39.618Z,30.08
2023-05-05T03:34:39.659Z,30.07
2023-05-05T03:35:39.732Z,30.06
2023-05-05T03:36:39.779Z,30.08
2023-05-05T03:37:39.876Z,30.09
2023-05-05T03:38:39.889Z,30.03
2023-05-05T03:39:39.898Z,30.07
2023-05-05T03:40:44.186Z,30.05
2023-05-05T03:41:39.926Z,30.07
2023-05-05T03:42:39.910Z,30.07
2023-05-05T03:43:39.896Z,30.07
2023-05-05T03:44:39.884Z,30.04
2023-05-05T03:45:39.903Z,30.07
2023-05-05T03:46:39.870Z,30.05
2023-05-05T03:47:39.902Z,30.05
2023-05-05T03:48:39.867Z,30.08
2023-05-05T03:49:39.868Z,30.06
2023-05-05T03:50:39.845Z,30.04
2023-05-05T03:51:39.837Z,30.05
2023-05-05T03:52:39.839Z,30.05
2023-05-05T03:53:39.806Z,30.06
2023-05-05T03:54:39.818Z,30.06
2023-05-05T03:55:39.806Z,30.04
2023-05-05T03:56:39.786Z,30.05
2023-05-05T03:57:39.813Z,30.05
2023-05-05T03:58:39.806Z,30.05
2023-05-05T03:59:39.809Z,30.06
2023-05-05T04:00:39.827Z,30.05
2023-05-05T04:01:39.895Z,30.06
2023-05-05T04:02:39.890Z,30.06
2023-05-05T04:03:39.942Z,30.05
2023-05-05T04:04:39.919Z,30.06
2023-05-05T04:05:39.994Z,30.05
2023-05-05T04:06:40.057Z,30.05
2023-05-05T04:07:40.094Z,30.04
2023-05-05T04:08:40.133Z,30.04
2023-05-05T04:09:40.154Z,30.02
2023-05-05T04:10:40.153Z,30.04
2023-05-05T04:11:40.221Z,30.04
2023-05-05T04:12:40.285Z,30.03
2023-05-05T04:13:40.277Z,30.05
2023-05-05T04:14:40.284Z,30.05
2023-05-05T04:15:40.291Z,30.02
2023-05-05T04:16:40.309Z,30.05
2023-05-05T04:17:40.347Z,30.04
2023-05-05T04:18:40.340Z,30.05
2023-05-05T04:19:40.362Z,30.05
2023-05-05T04:20:40.409Z,30.03
2023-05-05T04:21:40.424Z,30.01
2023-05-05T04:22:40.459Z,30.04
2023-05-05T04:23:40.520Z,30.02
2023-05-05T04:24:40.565Z,30.03
2023-05-05T04:25:40.634Z,30.02
2023-05-05T04:26:40.701Z,30.03
2023-05-05T04:27:40.717Z,30.02
2023-05-05T04:28:40.754Z,30.00
2023-05-05T04:29:40.751Z,30.02
2023-05-05T04:30:40.769Z,30.01
2023-05-05T04:31:40.864Z,29.98
2023-05-05T04:32:40.866Z,29.99
2023-05-05T04:33:40.837Z,29.99
2023-05-05T04:34:40.816Z,29.99
2023-05-05T04:35:40.838Z,29.99
2023-05-05T04:36:40.864Z,29.98
2023-05-05T04:37:40.923Z,29.97
2023-05-05T04:38:41.012Z,29.96
2023-05-05T04:39:41.044Z,29.97
2023-05-05T04:40:41.110Z,29.97
2023-05-05T04:41:41.143Z,29.97
2023-05-05T04:42:41.164Z,29.97
2023-05-05T04:43:41.135Z,29.94
2023-05-05T04:44:41.134Z,29.94
2023-05-05T04:45:41.156Z,29.94
2023-05-05T04:46:41.210Z,29.94
2023-05-05T04:47:41.189Z,29.95
2023-05-05T04:48:41.151Z,29.93
2023-05-05T04:49:41.159Z,29.90
2023-05-05T04:50:41.164Z,29.92
2023-05-05T04:51:41.182Z,29.94
2023-05-05T04:52:41.235Z,29.91
2023-05-05T04:53:41.311Z,29.92
2023-05-05T04:54:41.361Z,29.92
2023-05-05T04:55:41.397Z,29.91
2023-05-05T04:56:41.416Z,29.92
2023-05-05T04:57:41.423Z,29.91
2023-05-05T04:58:41.437Z,29.86
2023-05-05T04:59:41.444Z,29.69
2023-05-05T05:00:41.466Z,29.13
2023-05-05T05:01:41.528Z,28.47
2023-05-05T05:02:41.578Z,27.88
2023-05-05T05:03:41.720Z,27.36
2023-05-05T05:04:41.629Z,27.07
2023-05-05T05:05:41.682Z,26.84
2023-05-05T05:06:41.734Z,26.62
2023-05-05T05:07:41.758Z,26.36
2023-05-05T05:08:41.768Z,26.14
2023-05-05T05:09:41.785Z,26.10
2023-05-05T05:10:41.815Z,26.07
2023-05-05T05:11:41.822Z,25.95
2023-05-05T05:12:41.843Z,25.75
2023-05-05T05:13:41.821Z,25.69
2023-05-05T05:14:41.884Z,25.62
2023-05-05T05:15:41.877Z,25.59
2023-05-05T05:16:41.938Z,25.39
2023-05-05T05:17:41.942Z,25.16
2023-05-05T05:18:41.958Z,24.91
2023-05-05T05:19:41.997Z,24.77
2023-05-05T05:20:42.028Z,25.10
2023-05-05T05:21:42.067Z,25.63
2023-05-05T05:22:42.085Z,26.14
2023-05-05T05:23:42.132Z,26.53
2023-05-05T05:24:42.182Z,26.84
2023-05-05T05:25:42.186Z,27.15
2023-05-05T05:26:42.204Z,27.40
2023-05-05T05:27:42.224Z,27.78
2023-05-05T05:28:42.249Z,28.05
2023-05-05T05:29:42.324Z,28.15
2023-05-05T05:30:42.362Z,28.55
2023-05-05T05:31:42.495Z,28.79
2023-05-05T05:32:42.467Z,28.75
2023-05-05T05:33:42.589Z,28.94
2023-05-05T05:34:42.577Z,29.37
2023-05-05T05:35:42.637Z,29.78
2023-05-05T05:36:42.677Z,30.40
2023-05-05T05:37:42.715Z,30.53
2023-05-05T05:38:42.736Z,30.86
2023-05-05T05:39:43.756Z,31.45
2023-05-05T05:40:42.736Z,32.35
2023-05-05T05:41:42.799Z,32.30
2023-05-05T05:42:42.841Z,32.14
2023-05-05T05:43:43.061Z,32.30
2023-05-05T05:44:42.888Z,32.51
2023-05-05T05:45:43.046Z,32.87
2023-05-05T05:46:43.051Z,32.88
2023-05-05T05:47:42.983Z,33.07
2023-05-05T05:48:43.012Z,33.45
2023-05-05T05:49:43.034Z,33.47
2023-05-05T05:50:43.074Z,33.49
2023-05-05T05:51:43.124Z,33.57
2023-05-05T05:52:43.161Z,33.61
2023-05-05T05:53:43.208Z,33.67
2023-05-05T05:54:43.224Z,33.70
2023-05-05T05:55:43.256Z,33.92
2023-05-05T05:56:43.292Z,33.88
2023-05-05T05:57:43.299Z,33.91
2023-05-05T05:58:43.322Z,34.04
2023-05-05T05:59:43.341Z,33.94
2023-05-05T06:00:43.357Z,33.92
2023-05-05T06:01:43.357Z,33.91
2023-05-05T06:02:43.459Z,33.92
2023-05-05T06:03:43.672Z,33.96
2023-05-05T06:04:43.500Z,34.16
2023-05-05T06:05:43.535Z,34.16
2023-05-05T06:06:43.589Z,34.05
2023-05-05T06:07:43.569Z,34.07
2023-05-05T06:08:43.578Z,34.09
2023-05-05T06:09:43.654Z,34.24
2023-05-05T06:10:43.685Z,34.15
2023-05-05T06:11:43.698Z,34.16
2023-05-05T06:12:43.736Z,34.12
2023-05-05T06:13:43.733Z,34.09
2023-05-05T06:14:43.742Z,34.05
2023-05-05T06:15:43.782Z,34.10
2023-05-05T06:16:43.746Z,34.30
2023-05-05T06:17:43.795Z,34.17
2023-05-05T06:18:44.089Z,34.20
2023-05-05T06:19:43.759Z,34.16
2023-05-05T06:20:43.746Z,34.27
2023-05-05T06:21:43.769Z,34.20
2023-05-05T06:22:43.758Z,34.18
2023-05-05T06:23:43.799Z,34.19
2023-05-05T06:24:43.795Z,34.19
2023-05-05T06:25:43.813Z,34.10
2023-05-05T06:26:43.831Z,34.09
2023-05-05T06:27:43.824Z,34.11
2023-05-05T06:28:43.845Z,34.17
2023-05-05T06:29:43.847Z,34.14
2023-05-05T06:30:43.861Z,34.24
2023-05-05T06:31:44.121Z,34.26
2023-05-05T06:32:43.946Z,33.62
2023-05-05T06:33:43.939Z,32.75
2023-05-05T06:34:43.971Z,32.27
2023-05-05T06:35:43.992Z,31.87
2023-05-05T06:36:44.063Z,32.19
2023-05-05T06:37:44.069Z,32.15
2023-05-05T06:38:44.111Z,31.99
2023-05-05T06:39:44.155Z,31.91
2023-05-05T06:40:44.183Z,31.60
2023-05-05T06:41:44.233Z,31.57
2023-05-05T06:42:44.283Z,31.56
2023-05-05T06:43:44.600Z,31.72
2023-05-05T06:44:44.372Z,31.34
2023-05-05T06:45:44.431Z,31.39
2023-05-05T06:46:44.621Z,31.10
2023-05-05T06:47:44.612Z,31.17
2023-05-05T06:48:44.575Z,31.16
2023-05-05T06:49:44.642Z,31.15
2023-05-05T06:50:44.683Z,31.10
2023-05-05T06:51:44.736Z,31.04
2023-05-05T06:52:44.771Z,31.01
2023-05-05T06:53:45.105Z,30.89
2023-05-05T06:54:44.903Z,30.86
2023-05-05T06:55:44.900Z,30.88
2023-05-05T06:56:44.935Z,31.03
2023-05-05T06:57:44.985Z,31.12
2023-05-05T06:58:45.025Z,31.29
2023-05-05T06:59:45.073Z,31.36
2023-05-05T07:00:45.184Z,31.47
2023-05-05T07:01:45.165Z,31.54
2023-05-05T07:02:45.260Z,31.54
2023-05-05T07:03:45.326Z,31.54
2023-05-05T07:04:45.283Z,31.55
2023-05-05T07:05:45.271Z,31.60
2023-05-05T07:06:45.285Z,31.68
2023-05-05T07:07:45.281Z,31.81
2023-05-05T07:08:45.645Z,31.76
2023-05-05T07:09:45.288Z,31.76
2023-05-05T07:10:45.334Z,31.82
2023-05-05T07:11:45.595Z,31.81
2023-05-05T07:12:45.420Z,31.86
2023-05-05T07:13:45.406Z,31.85
2023-05-05T07:14:45.438Z,31.97
2023-05-05T07:15:45.461Z,32.12
2023-05-05T07:16:45.564Z,32.28
2023-05-05T07:17:45.536Z,32.36
2023-05-05T07:18:45.531Z,32.29
2023-05-05T07:19:45.599Z,32.26
2023-05-05T07:20:45.550Z,32.29
2023-05-05T07:21:45.559Z,32.25
2023-05-05T07:22:45.842Z,32.23
2023-05-05T07:23:45.573Z,32.13
2023-05-05T07:24:45.591Z,32.17
2023-05-05T07:25:45.626Z,32.15
2023-05-05T07:26:45.740Z,30.90
2023-05-05T07:27:45.722Z,31.25
2023-05-05T07:28:46.102Z,31.52
2023-05-05T07:29:45.787Z,31.72
2023-05-05T07:30:45.972Z,31.23
2023-05-05T07:31:46.178Z,31.56
2023-05-05T07:32:45.962Z,31.68
2023-05-05T07:33:45.866Z,31.66
2023-05-05T07:34:45.897Z,31.55
2023-05-05T07:35:45.907Z,31.56
2023-05-05T07:36:46.129Z,31.63
2023-05-05T07:37:45.918Z,31.63
2023-05-05T07:38:45.922Z,31.77
2023-05-05T07:39:45.918Z,31.79
2023-05-05T07:40:45.912Z,31.78
2023-05-05T07:41:45.950Z,31.89
2023-05-05T07:42:46.066Z,31.94
2023-05-05T07:43:46.094Z,31.89
2023-05-05T07:44:46.104Z,31.87
2023-05-05T07:45:46.127Z,31.90
2023-05-05T07:46:46.129Z,31.96
2023-05-05T07:47:46.215Z,31.95
2023-05-05T07:48:46.606Z,31.97
2023-05-05T07:49:46.180Z,32.05
2023-05-05T07:50:46.283Z,32.08
2023-05-05T07:51:46.302Z,32.05
2023-05-05T07:52:49.950Z,32.08
2023-05-05T07:53:47.341Z,32.09
2023-05-05T07:54:46.338Z,32.01
2023-05-05T07:55:46.349Z,32.06
2023-05-05T07:56:46.345Z,32.01
2023-05-05T07:57:46.332Z,31.99
2023-05-05T07:58:46.378Z,32.07
2023-05-05T07:59:46.331Z,32.07
2023-05-05T08:00:46.329Z,32.05
2023-05-05T08:01:46.628Z,32.02
2023-05-05T08:02:46.372Z,31.93
2023-05-05T08:03:46.375Z,31.89
2023-05-05T08:04:46.309Z,31.85
2023-05-05T08:05:46.282Z,31.91
2023-05-05T08:06:46.279Z,31.88
2023-05-05T08:07:46.257Z,31.90
2023-05-05T08:08:46.236Z,31.93
2023-05-05T08:09:46.638Z,31.93
2023-05-05T08:10:46.248Z,31.43
2023-05-05T08:11:46.231Z,31.84
2023-05-05T08:12:46.240Z,31.84
2023-05-05T08:13:46.308Z,31.30
2023-05-05T08:14:46.431Z,31.57
2023-05-05T08:15:46.403Z,31.48
2023-05-05T08:16:46.358Z,31.51
2023-05-05T08:17:46.639Z,31.22
2023-05-05T08:18:46.400Z,31.04
2023-05-05T08:19:46.651Z,30.65
2023-05-05T08:20:46.370Z,30.71
2023-05-05T08:21:46.371Z,30.89
2023-05-05T08:22:46.413Z,30.95
2023-05-05T08:23:46.661Z,30.93
2023-05-05T08:24:46.426Z,31.10
2023-05-05T08:25:46.453Z,31.02
2023-05-05T08:26:46.498Z,30.98
2023-05-05T08:27:46.563Z,31.01
2023-05-05T08:28:46.611Z,30.88
2023-05-05T08:29:46.624Z,30.97
2023-05-05T08:30:46.762Z,30.98
2023-05-05T08:31:46.801Z,31.00
2023-05-05T08:32:46.812Z,31.01
2023-05-05T08:33:46.849Z,30.80
2023-05-05T08:34:46.800Z,30.76
2023-05-05T08:35:46.803Z,31.01
2023-05-05T08:36:46.844Z,31.45
2023-05-05T08:37:46.828Z,31.76
2023-05-05T08:38:46.831Z,31.65
2023-05-05T08:39:46.894Z,31.82
2023-05-05T08:40:46.915Z,31.67
2023-05-05T08:41:46.975Z,31.66
2023-05-05T08:42:46.997Z,31.62
2023-05-05T08:43:47.040Z,31.89
2023-05-05T08:44:47.092Z,31.74
2023-05-05T08:45:47.142Z,31.73
2023-05-05T08:46:47.341Z,31.71
2023-05-05T08:47:47.661Z,31.89
2023-05-05T08:48:47.212Z,32.02
2023-05-05T08:49:47.232Z,32.10
2023-05-05T08:50:47.279Z,32.58
2023-05-05T08:51:47.492Z,32.66
2023-05-05T08:52:48.644Z,32.51
2023-05-05T08:53:47.451Z,32.57
2023-05-05T08:54:47.650Z,32.73
2023-05-05T08:55:47.548Z,32.83
2023-05-05T08:56:47.566Z,32.81
2023-05-05T08:57:47.632Z,32.72
2023-05-05T08:58:47.739Z,32.85
2023-05-05T08:59:47.665Z,32.85
2023-05-05T09:00:47.729Z,32.96
2023-05-05T09:01:47.738Z,32.92
2023-05-05T09:02:48.040Z,32.81
2023-05-05T09:03:47.852Z,32.93
2023-05-05T09:04:48.151Z,32.88
2023-05-05T09:05:47.932Z,32.96
2023-05-05T09:06:47.954Z,33.06
2023-05-05T09:07:48.013Z,33.13
2023-05-05T09:08:48.104Z,33.15
2023-05-05T09:09:48.133Z,33.16
2023-05-05T09:10:48.227Z,33.14
2023-05-05T09:11:48.244Z,33.48
2023-05-05T09:12:48.311Z,33.64
2023-05-05T09:13:48.371Z,33.88
2023-05-05T09:14:48.357Z,34.06
2023-05-05T09:15:48.320Z,33.82
2023-05-05T09:16:48.467Z,33.86
2023-05-05T09:17:48.617Z,33.86
2023-05-05T09:18:48.452Z,33.89
2023-05-05T09:19:48.452Z,33.95
2023-05-05T09:20:48.481Z,34.22
2023-05-05T09:21:48.536Z,34.54
2023-05-05T09:22:48.537Z,34.33
2023-05-05T09:23:48.608Z,34.39
2023-05-05T09:24:48.638Z,35.19
2023-05-05T09:25:48.742Z,34.47
2023-05-05T09:26:48.773Z,33.93
2023-05-05T09:27:48.820Z,33.77
2023-05-05T09:28:49.029Z,33.41
2023-05-05T09:29:48.878Z,33.13
2023-05-05T09:30:48.975Z,33.33
2023-05-05T09:31:48.959Z,33.07
2023-05-05T09:32:49.220Z,31.71
2023-05-05T09:33:49.053Z,32.15
2023-05-05T09:34:49.200Z,31.17
2023-05-05T09:35:49.092Z,30.67
2023-05-05T09:36:49.171Z,31.66
2023-05-05T09:37:49.153Z,31.59
2023-05-05T09:38:49.163Z,31.95
2023-05-05T09:39:49.244Z,31.94
2023-05-05T09:40:49.288Z,31.72
2023-05-05T09:41:49.284Z,31.52
2023-05-05T09:42:49.311Z,31.47
2023-05-05T09:43:49.325Z,31.57
2023-05-05T09:44:49.393Z,31.64
2023-05-05T09:45:49.418Z,31.65
2023-05-05T09:46:49.493Z,31.46
2023-05-05T09:47:49.569Z,31.29
2023-05-05T09:48:49.554Z,31.47
2023-05-05T09:49:49.535Z,31.44
2023-05-05T09:50:49.759Z,31.47
2023-05-05T09:51:49.625Z,31.31
2023-05-05T09:52:49.662Z,31.42
2023-05-05T09:53:49.764Z,31.51
2023-05-05T09:54:49.762Z,31.39
2023-05-05T09:55:49.783Z,31.39
2023-05-05T09:56:49.802Z,30.41
2023-05-05T09:57:49.794Z,30.52
2023-05-05T09:58:49.837Z,30.28
2023-05-05T09:59:49.857Z,30.75
2023-05-05T10:00:49.913Z,30.77
2023-05-05T10:01:49.927Z,31.09
2023-05-05T10:02:50.003Z,31.05
2023-05-05T10:03:49.983Z,30.99
2023-05-05T10:04:50.196Z,31.17
2023-05-05T10:05:50.099Z,31.44
2023-05-05T10:06:50.228Z,31.29
2023-05-05T10:07:50.201Z,31.04
2023-05-05T10:08:50.244Z,29.91
2023-05-05T10:09:50.303Z,30.38
2023-05-05T10:10:50.369Z,30.70
2023-05-05T10:11:50.443Z,30.94
2023-05-05T10:12:50.563Z,30.99
2023-05-05T10:13:50.521Z,30.80
2023-05-05T10:14:50.557Z,30.97
2023-05-05T10:15:50.604Z,30.76
2023-05-05T10:16:50.636Z,30.82
2023-05-05T10:18:02.193Z,30.89
2023-05-05T10:18:51.601Z,30.86
2023-05-05T10:19:50.602Z,31.01
2023-05-05T10:20:50.895Z,30.65
2023-05-05T10:21:50.702Z,31.35
2023-05-05T10:22:50.684Z,30.82
2023-05-05T10:23:50.593Z,30.72
2023-05-05T10:24:50.547Z,30.33
2023-05-05T10:25:50.553Z,30.62
2023-05-05T10:26:50.584Z,30.65
2023-05-05T10:27:50.540Z,30.59
2023-05-05T10:28:50.554Z,30.49
2023-05-05T10:29:50.532Z,30.53
2023-05-05T10:30:50.530Z,30.43
2023-05-05T10:31:50.550Z,30.43
2023-05-05T10:33:00.861Z,30.52
2023-05-05T10:33:51.593Z,30.49
2023-05-05T10:34:50.527Z,30.72
2023-05-05T10:35:50.494Z,31.02
2023-05-05T10:36:50.511Z,31.19
2023-05-05T10:37:50.502Z,31.44
2023-05-05T10:38:50.548Z,31.76
2023-05-05T10:39:50.477Z,31.50
2023-05-05T10:40:50.458Z,31.86
2023-05-05T10:41:50.472Z,31.75
2023-05-05T10:42:50.461Z,32.50
2023-05-05T10:43:50.458Z,32.50
2023-05-05T10:44:50.448Z,32.63
2023-05-05T10:45:50.523Z,32.66
2023-05-05T10:46:50.440Z,32.76
2023-05-05T10:47:50.560Z,33.04
2023-05-05T10:48:50.711Z,33.05
2023-05-05T10:49:50.611Z,32.87
2023-05-05T10:50:50.680Z,32.37
2023-05-05T10:51:50.656Z,32.78
2023-05-05T10:52:50.725Z,32.96
2023-05-05T10:53:50.773Z,32.67
2023-05-05T10:54:50.908Z,32.56
2023-05-05T10:55:50.834Z,32.58
2023-05-05T10:56:50.881Z,32.62
2023-05-05T10:57:50.907Z,32.53
2023-05-05T10:58:59.787Z,32.83
2023-05-05T10:59:52.214Z,33.26
2023-05-05T11:00:50.958Z,32.97
2023-05-05T11:01:50.991Z,33.12
2023-05-05T11:02:50.942Z,32.93
2023-05-05T11:03:50.961Z,33.11
2023-05-05T11:04:50.934Z,33.00
2023-05-05T11:05:50.896Z,33.20
2023-05-05T11:06:50.925Z,32.99
2023-05-05T11:07:50.880Z,32.78
2023-05-05T11:08:50.893Z,32.59
2023-05-05T11:09:51.209Z,32.63
2023-05-05T11:10:51.084Z,32.60
2023-05-05T11:11:50.865Z,32.36
2023-05-05T11:12:50.906Z,32.35
2023-05-05T11:13:50.863Z,32.47
2023-05-05T11:14:51.190Z,32.53
2023-05-05T11:15:50.861Z,32.44
2023-05-05T11:16:50.932Z,32.53
2023-05-05T11:17:50.908Z,33.54
2023-05-05T11:18:50.887Z,34.05
2023-05-05T11:19:51.212Z,33.52
2023-05-05T11:20:50.956Z,32.22
2023-05-05T11:21:51.132Z,32.35
2023-05-05T11:22:51.024Z,32.10
2023-05-05T11:23:51.121Z,31.90
2023-05-05T11:24:51.168Z,31.84
2023-05-05T11:25:51.212Z,31.66
2023-05-05T11:26:51.373Z,31.63
2023-05-05T11:27:51.305Z,31.49
2023-05-05T11:28:51.334Z,31.58
2023-05-05T11:29:52.137Z,31.38
2023-05-05T11:30:51.488Z,31.36
2023-05-05T11:31:51.473Z,30.98
2023-05-05T11:32:51.545Z,30.94
2023-05-05T11:33:51.557Z,30.93
2023-05-05T11:34:51.562Z,31.04
2023-05-05T11:35:51.545Z,31.08
2023-05-05T11:36:51.528Z,31.17
2023-05-05T11:37:51.521Z,31.14
2023-05-05T11:38:51.524Z,31.07
2023-05-05T11:39:51.509Z,31.02
2023-05-05T11:40:51.532Z,30.97
2023-05-05T11:41:51.548Z,30.94
2023-05-05T11:42:51.546Z,30.93
2023-05-05T11:43:51.576Z,30.88
2023-05-05T11:44:51.628Z,30.82
2023-05-05T11:45:51.693Z,30.83
2023-05-05T11:46:51.738Z,30.83
2023-05-05T11:47:51.808Z,30.83
2023-05-05T11:48:51.814Z,30.82
2023-05-05T11:49:51.832Z,30.80
2023-05-05T11:50:51.903Z,30.80
2023-05-05T11:51:51.939Z,30.75
2023-05-05T11:52:51.990Z,30.75
2023-05-05T11:53:52.021Z,30.70
2023-05-05T11:54:52.080Z,30.72
2023-05-05T11:55:52.104Z,30.68
2023-05-05T11:56:52.124Z,30.69
2023-05-05T11:57:52.142Z,30.65
2023-05-05T11:58:52.207Z,30.67
2023-05-05T11:59:52.163Z,30.62
2023-05-05T12:00:52.166Z,30.64
2023-05-05T12:01:52.195Z,30.61
2023-05-05T12:02:52.285Z,30.60
2023-05-05T12:03:52.466Z,30.61
2023-05-05T12:04:52.322Z,30.62
2023-05-05T12:05:52.244Z,30.57
2023-05-05T12:06:52.284Z,30.56
2023-05-05T12:07:52.280Z,30.56
2023-05-05T12:08:52.293Z,30.55
2023-05-05T12:09:52.329Z,30.52
2023-05-05T12:10:52.385Z,30.52
2023-05-05T12:11:52.414Z,30.51
2023-05-05T12:12:55.158Z,30.49
2023-05-05T12:13:52.405Z,30.50
2023-05-05T12:14:52.483Z,30.46
2023-05-05T12:15:52.440Z,30.46
2023-05-05T12:16:52.409Z,30.45
2023-05-05T12:17:52.452Z,30.29
2023-05-05T12:18:52.385Z,30.20
2023-05-05T12:19:52.433Z,29.98
2023-05-05T12:20:52.364Z,29.94
2023-05-05T12:21:52.380Z,29.97
2023-05-05T12:22:52.362Z,30.14
2023-05-05T12:23:52.360Z,30.17
2023-05-05T12:24:53.804Z,30.17
2023-05-05T12:25:52.503Z,30.14
2023-05-05T12:26:52.622Z,30.16
2023-05-05T12:27:52.509Z,30.14
2023-05-05T12:28:52.526Z,29.79
2023-05-05T12:29:52.579Z,29.89
2023-05-05T12:30:53.857Z,30.06
2023-05-05T12:31:52.660Z,30.07
2023-05-05T12:32:52.663Z,29.92
2023-05-05T12:33:52.663Z,29.87
2023-05-05T12:34:52.690Z,29.92
2023-05-05T12:35:52.723Z,29.92
2023-05-05T12:36:52.752Z,29.88
2023-05-05T12:37:52.763Z,29.86
2023-05-05T12:38:52.833Z,29.87
2023-05-05T12:39:52.814Z,29.91
2023-05-05T12:40:52.811Z,29.88
2023-05-05T12:41:52.830Z,29.88
2023-05-05T12:42:52.885Z,29.83
2023-05-05T12:43:52.917Z,29.23
2023-05-05T12:44:52.941Z,29.20
2023-05-05T12:45:53.036Z,29.40
2023-05-05T12:46:53.031Z,29.50
2023-05-05T12:47:53.123Z,29.49
2023-05-05T12:48:53.011Z,29.47
2023-05-05T12:49:53.049Z,29.52
2023-05-05T12:50:53.100Z,29.49
2023-05-05T12:51:53.100Z,29.45
2023-05-05T12:52:53.058Z,29.17